Weather observations for the past three days for
Birmingham, Birmingham International Airport
| Date | Time (cdt) | Wind (kph) | Vis. (km) | Weather | Sky Cond. | Temperature (ºC) | Relative Humidity | Wind Chill (°C) | Heat Index (°C) | Pressure | Precipitation (cm) | ||||||
|---|---|---|---|---|---|---|---|---|---|---|---|---|---|---|---|---|---|
| Air | Dwpt | 6 hour | altimeter (cm) | sea level (mb) | 1 hr | 3 hr | 6 hr | ||||||||||
| Max. | Min. | ||||||||||||||||
| 10 | 08:53 | Calm | 16.09 | Overcast | FEW005 OVC012 | 19.4 | 16.7 | 84% | 76.43 | 1018.5 | |||||||
| 10 | 07:53 | E 6 | 9.66 | Fog/Mist | OVC007 | 18.3 | 16.7 | 90% | 76.4 | 1017.8 | |||||||
| 10 | 06:53 | N 7 | 3.22 | Fog/Mist | OVC004 | 17.8 | 17.2 | 19.4 | 17.2 | 96% | 76.33 | 1016.9 | |||||
| 10 | 05:53 | N 7 | 1.61 | Fog/Mist | OVC002 | 17.8 | 17.2 | 96% | 76.25 | 1015.9 | |||||||
| 10 | 04:53 | N 9 | 2.41 | Fog/Mist | OVC002 | 17.8 | 17.2 | 96% | 76.2 | 1015.2 | |||||||
| 10 | 03:53 | N 7 | 9.66 | Fog/Mist | OVC003 | 17.8 | 17.2 | 96% | 76.15 | 1014.6 | |||||||
| 10 | 02:53 | W 6 | 16.09 | Mostly Cloudy | BKN005 | 17.8 | 17.2 | 96% | 76.12 | 1014.2 | |||||||
| 10 | 01:53 | Calm | 16.09 | Mostly Cloudy | SCT007 BKN026 | 17.8 | 17.2 | 96% | 76.15 | 1014.5 | |||||||
| 10 | 00:53 | W 9 | 16.09 | Overcast | OVC008 | 18.9 | 17.8 | 21.7 | 17.8 | 93% | 76.15 | 1014.7 | |||||
| 09 | 23:53 | Calm | 16.09 | Partly Cloudy | FEW010 SCT030 | 18.3 | 16.7 | 90% | 76.17 | 1014.8 | |||||||
| 09 | 22:53 | S 9 | 16.09 | A Few Clouds | FEW030 | 19.4 | 17.2 | 87% | 76.17 | 1014.7 | |||||||
| 09 | 21:53 | S 7 | 16.09 | Overcast | FEW028 OVC250 | 20 | 17.2 | 84% | 76.17 | 1014.8 | |||||||
| 09 | 20:53 | S 7 | 16.09 | Overcast | FEW028 OVC250 | 20 | 17.2 | 84% | 76.1 | 1014.0 | |||||||
| 09 | 19:53 | S 7 | 16.09 | Mostly Cloudy | FEW025 BKN250 | 21.1 | 16.7 | 76% | 76.02 | 1012.9 | |||||||
| 09 | 18:53 | SE 7 | 16.09 | Mostly Cloudy | FEW025 BKN250 | 21.7 | 16.7 | 25 | 21.7 | 73% | 76 | 1012.4 | |||||
| 09 | 17:53 | S 9 | 16.09 | Mostly Cloudy | FEW028 BKN250 | 22.8 | 16.7 | 69% | 75.95 | 1011.8 | |||||||
| 09 | 16:53 | SE 9 | 16.09 | Mostly Cloudy | FEW037 BKN250 | 23.9 | 15 | 58% | 25 | 75.92 | 1011.3 | ||||||
| 09 | 15:53 | Calm | 16.09 | Mostly Cloudy | FEW042 BKN250 | 24.4 | 14.4 | 54% | 26 | 75.9 | 1011.0 | ||||||
| 09 | 14:53 | Calm | 16.09 | Mostly Cloudy | FEW039 BKN250 | 24.4 | 15 | 56% | 26 | 75.92 | 1011.6 | ||||||
| 09 | 13:53 | W 11 | 16.09 | Mostly Cloudy | FEW025 BKN250 | 23.9 | 16.1 | 62% | 25 | 75.97 | 1012.2 | ||||||
| 09 | 12:53 | Vrbl 6 | 16.09 | Mostly Cloudy | BKN022 BKN250 | 22.8 | 16.1 | 22.8 | 16.7 | 66% | 76.05 | 1013.2 | |||||
| 09 | 11:53 | W 7 | 16.09 | Mostly Cloudy | SCT015 BKN190 | 21.7 | 15.6 | 68% | 76.02 | 1013.1 | |||||||
| 09 | 10:53 | Vrbl 7 | 16.09 | Overcast | OVC013 | 20 | 15.6 | 76% | 76.07 | 1013.6 | |||||||
| 09 | 09:53 | SW 9 | 16.09 | Overcast | OVC009 | 18.3 | 15.6 | 84% | 76.07 | 1013.7 | |||||||
| 09 | 08:53 | SW 11 | 16.09 | Overcast | OVC008 | 17.2 | 15.6 | 90% | 76.07 | 1013.8 | |||||||
| 09 | 07:53 | W 7 | 12.87 | Overcast | OVC007 | 17.2 | 15.6 | 90% | 76 | 1012.8 | |||||||
| 09 | 06:53 | SW 11 | 11.27 | Overcast | OVC006 | 16.7 | 15.6 | 17.2 | 14.4 | 93% | 76 | 1012.8 | 0.03 | ||||
| 09 | 05:53 | SW 13 | 9.66 | Fog/Mist | OVC007 | 16.7 | 15.6 | 93% | 76 | 1012.7 | |||||||
| 09 | 04:53 | SW 7 | 16.09 | Overcast | OVC009 | 16.7 | 15.6 | 93% | 75.9 | 1011.4 | |||||||
| 09 | 03:53 | S 17 | 11.27 | Light Rain | OVC008 | 16.7 | 15.6 | 93% | 75.87 | 1011.1 | 0.03 | 0.03 | |||||
| 09 | 02:53 | SW 11 | 16.09 | Overcast | OVC013 | 16.7 | 14.4 | 86% | 75.97 | 1012.4 | |||||||
| 09 | 01:53 | S 9 | 16.09 | Overcast | OVC016 | 15.6 | 13.3 | 86% | 75.95 | 1012.1 | |||||||
| 09 | 00:53 | Calm | 16.09 | Overcast | OVC250 | 14.4 | 12.2 | 17.8 | 13.9 | 87% | 75.97 | 1012.3 | |||||
| 08 | 23:53 | Calm | 16.09 | Overcast | FEW026 OVC250 | 13.9 | 11.7 | 87% | 76.02 | 1013.1 | |||||||
| 08 | 22:53 | Calm | 16.09 | Overcast | OVC250 | 15 | 12.2 | 83% | 76.02 | 1013.2 | |||||||
| 08 | 21:53 | E 6 | 16.09 | Overcast | OVC250 | 15.6 | 12.2 | 80% | 76.02 | 1013.0 | |||||||
| 08 | 20:53 | Calm | 16.09 | Mostly Cloudy | BKN240 | 16.1 | 11.7 | 75% | 76.05 | 1013.5 | |||||||
| 08 | 19:53 | SE 6 | 16.09 | Mostly Cloudy | BKN240 | 16.7 | 11.7 | 73% | 76.02 | 1013.2 | |||||||
| 08 | 18:53 | SE 7 | 16.09 | Mostly Cloudy | BKN230 | 17.8 | 11.7 | 21.1 | 17.8 | 68% | 76.05 | 1013.7 | |||||
| 08 | 17:53 | S 7 | 16.09 | Overcast | OVC240 | 17.8 | 11.1 | 65% | 76.12 | 1014.7 | |||||||
| 08 | 16:53 | S 9 | 16.09 | Overcast | OVC230 | 18.3 | 10.6 | 61% | 76.1 | 1014.3 | |||||||
| 08 | 15:53 | Vrbl 9 | 16.09 | Overcast | OVC230 | 18.9 | 10.6 | 59% | 76.15 | 1014.8 | |||||||
| 08 | 14:53 | SE 7 | 16.09 | Overcast | SCT120 OVC220 | 18.9 | 8.3 | 50% | 76.17 | 1015.1 | |||||||
| 08 | 13:53 | SE 15 | 16.09 | Mostly Cloudy | FEW140 SCT180 BKN250 | 19.4 | 8.9 | 51% | 76.17 | 1015.0 | |||||||
| 08 | 12:53 | E 9 | 16.09 | Overcast | FEW080 SCT150 OVC250 | 21.1 | 8.3 | 21.1 | 12.2 | 44% | 76.25 | 1016.2 | |||||
| 08 | 11:53 | Vrbl 11 | 16.09 | Mostly Cloudy | FEW090 FEW150 BKN250 | 20.6 | 8.3 | 45% | 76.33 | 1017.0 | |||||||
| 08 | 10:53 | E 15 | 16.09 | Mostly Cloudy | FEW150 BKN250 | 19.4 | 8.3 | 49% | 76.38 | 1017.7 | |||||||
| 08 | 09:53 | E 13 | 16.09 | Mostly Cloudy | FEW150 BKN250 | 17.2 | 8.3 | 56% | 76.43 | 1018.4 | |||||||
| 08 | 08:53 | NE 7 | 16.09 | Mostly Cloudy | FEW150 BKN250 | 16.7 | 8.3 | 58% | 76.45 | 1018.8 | |||||||
| 08 | 07:53 | E 9 | 16.09 | Mostly Cloudy | FEW150 BKN250 | 14.4 | 7.8 | 65% | 76.4 | 1018.3 | |||||||
| 08 | 06:53 | NE 7 | 16.09 | Mostly Cloudy | FEW150 BKN250 | 12.2 | 8.9 | 13.3 | 11.1 | 80% | 76.38 | 1017.8 | |||||
| 08 | 05:53 | Calm | 16.09 | Mostly Cloudy | FEW150 BKN250 | 11.1 | 9.4 | 89% | 76.33 | 1017.2 | |||||||
| 08 | 04:53 | Calm | 16.09 | Partly Cloudy | FEW150 SCT250 | 11.7 | 10 | 89% | 76.28 | 1016.4 | |||||||
| 08 | 03:53 | Calm | 16.09 | Fair | CLR | 11.7 | 11.1 | 96% | 76.2 | 1015.3 | |||||||
| 08 | 02:53 | NE 6 | 16.09 | Fair | CLR | 11.7 | 10 | 89% | 76.2 | 1015.5 | |||||||
| 08 | 01:53 | NE 6 | 16.09 | A Few Clouds | FEW250 | 12.8 | 11.1 | 90% | 76.23 | 1015.7 | |||||||
| 08 | 00:53 | Calm | 16.09 | Fair | CLR | 12.8 | 12.2 | 20 | 12.2 | 96% | 76.25 | 1016.1 | |||||
| 07 | 23:53 | Calm | 16.09 | Partly Cloudy | SCT250 | 13.3 | 12.2 | 93% | 76.28 | 1016.6 | |||||||
| 07 | 22:53 | Calm | 16.09 | Partly Cloudy | SCT250 | 13.9 | 12.2 | 90% | 76.28 | 1016.6 | |||||||
| 07 | 21:53 | Calm | 16.09 | Partly Cloudy | SCT250 | 15 | 12.2 | 83% | 76.28 | 1016.4 | |||||||
| 07 | 20:53 | Calm | 16.09 | Partly Cloudy | SCT200 | 15.6 | 12.2 | 80% | 76.23 | 1015.8 | |||||||
| 07 | 19:53 | N 11 | 16.09 | Mostly Cloudy | BKN200 | 16.7 | 12.2 | 75% | 76.2 | 1015.4 | |||||||
| 07 | 18:53 | N 13 | 16.09 | Mostly Cloudy | FEW050 BKN200 | 20 | 11.7 | 22.8 | 17.8 | 59% | 76.15 | 1014.8 | |||||
| 07 | 17:53 | N 17 | 16.09 | Partly Cloudy | FEW035 SCT250 | 21.1 | 11.7 | 55% | 76.12 | 1014.3 | |||||||
| 07 | 16:53 | NW 17 | 16.09 | Mostly Cloudy | SCT037 BKN250 | 21.7 | 12.2 | 55% | 76.1 | 1014.0 | |||||||
| 07 | 15:53 | NW 15 | 16.09 | Mostly Cloudy | SCT036 BKN250 | 22.2 | 13.3 | 57% | 76.1 | 1013.8 | |||||||
| 07 | 14:53 | NW 17 | 16.09 | Mostly Cloudy | BKN031 | 21.1 | 12.8 | 59% | 76.12 | 1014.1 | |||||||
| 07 | 13:53 | NE 6 | 16.09 | Partly Cloudy | SCT022 | 20 | 13.3 | 65% | 76.12 | 1014.3 | |||||||
| 07 | 12:53 | N 20 | 16.09 | Mostly Cloudy | BKN016 | 17.8 | 13.3 | 18.3 | 15 | 75% | 76.2 | 1015.3 | |||||
| 07 | 11:53 | NW 11 | 16.09 | Overcast | BKN007 OVC011 | 16.7 | 13.3 | 80% | 76.23 | 1015.7 | |||||||
| 07 | 10:53 | NW 17 | 16.09 | Overcast | OVC005 | 15 | 13.3 | 90% | 76.17 | 1015.0 | |||||||
| 07 | 09:53 | NW 15 | 16.09 | Overcast | OVC006 | 15.6 | 13.9 | 90% | 76.15 | 1014.6 | |||||||
| Date | Time (cdt) | Wind (kph) | Vis. (km) | Weather | Sky Cond. | Air | Dwpt | Max. | Min. | Relative Humidity | Wind Chill (°C) | Heat Index (°C) | altimeter (cm) | sea level (mb) | 1 hr | 3 hr | 6 hr |
| 6 hour | |||||||||||||||||
| Temperature (ºC) | Pressure | Precipitation (cm) | |||||||||||||||